Beachwood, OH (44122)

10:57 PM EST on February 22, 2017 (GMT -0500)
golf course | | Change Station

Elev 1112 ft 41.47 °N, 81.52 °W | Updated 31 seconds ago

Overcast
Overcast
55.5 °F
Feels Like 55.5 °F
N
6.0
Wind Variable Wind from SSE

Today
High -- | Low -- °F
--% Chance of Precip.
Yesterday
High -- | Low -- °F
Precip. -- in
Pressure 29.80 in
Visibility 10.0 miles
Clouds Mostly Cloudy 3500 ft
Dew Point 51 °F
Humidity 86%
Rainfall 0.05 in
Snow Depth Not available.
7:10 AM 6:08 PM
Waning Crescent, 13% visible
METAR KCGF 230345Z 20015KT 10SM BKN035 15/12 A2980
Pressure 29.80 in
Visibility 10.0 miles
Clouds Mostly Cloudy 3500 ft
Dew Point 51 °F
Humidity 86%
Rainfall 0.05 in
Snow Depth Not available.
7:10 AM 6:08 PM
Waning Crescent, 13% visible
METAR KCGF 230345Z 20015KT 10SM BKN035 15/12 A2980

Get Your Daily Forecast Email!

Thanks for signing up!

Be on the lookout for a verification email in your inbox.

You'll start receiving the daily forecast at 8 AM.

×

10-Day Weather Forecast

Almanac

Astronomy

Feb. 22, 2017 Rise Set
Actual Time
Civil Twilight
Nautical Twilight
Astronomical Twilight
Moon
Length of Visible Light
Length of Day
Tomorrow will be .
, % of the Moon is Illuminated

Today's Extremes

State Highs State Lows

Community

WunderPhotos

Upload Photos

1,962,540 photos uploaded!

WunderBlog® & News

Nearby

Air Quality

  Air Quality AQ Index Pollutant
Not available.

Snow Depth

Station Depth Elevation

Earthquake Activity

City Distance Mag. Time & Date
Minimum magnitude displayed is 2.5.

Coastal Water Temperatures

Place Temperature

Stations

Nearby Weather Stations

Station Location Temp. Windchill Dew Point Humidity Wind Precip. Elev Updated Type
                   

Watches & Warnings

There are currently no watches in effect.